Seattle, WA (98139)

4:57 AM PDT on March 25, 2017 (GMT -0700)
MWPOW1 | | Change Station

Elev 9 ft 47.66 °N, 122.44 °W | Updated 4 hours ago

Overcast
Overcast
47.0 °F
Feels Like 39 °F
N
21.0
Wind Variable Wind from South
Gusts 22.0 mph

Today
High -- | Low -- °F
--% Chance of Precip.
Yesterday
High -- | Low -- °F
Precip. -- in
Pressure 30.06 in
Visibility 10.0 miles
Clouds Few 7500 ft
Mostly Cloudy 11000 ft
Windchill 39 °F
Dew Point 42.0 °F
Humidity 82%
Rainfall 0.34 in
Snow Depth Not available.
7:01 AM 7:30 PM
Waning Crescent, 9% visible
METAR KBFI 251153Z 18009KT 10SM FEW075 BKN110 07/06 A3006 RMK AO2 RAE21 SLP178 P0001 60001 70045 T00720056 10083 20072 51001
Pressure 30.06 in
Visibility 10.0 miles
Clouds Few 7500 ft
Mostly Cloudy 11000 ft
Windchill 39 °F
Dew Point 42.0 °F
Humidity 82%
Rainfall 0.34 in
Snow Depth Not available.
7:01 AM 7:30 PM
Waning Crescent, 9% visible
METAR KBFI 251153Z 18009KT 10SM FEW075 BKN110 07/06 A3006 RMK AO2 RAE21 SLP178 P0001 60001 70045 T00720056 10083 20072 51001

Get Severe Weather Alerts

Thanks for signing up!

Be on the lookout for a verification email in your inbox.

You'll start receiving the daily forecast at 8 AM.

×

10-Day Weather Forecast

Almanac

Astronomy

Mar. 25, 2017 Rise Set
Actual Time
Civil Twilight
Nautical Twilight
Astronomical Twilight
Moon
Length of Visible Light
Length of Day
Tomorrow will be .
, % of the Moon is Illuminated

Today's Extremes

State Highs State Lows

Community

WunderPhotos

Upload Photos

1,962,540 photos uploaded!

WunderBlog® & News

Nearby

Air Quality

  Air Quality AQ Index Pollutant
Not available.

Snow Depth

Station Depth Elevation

Earthquake Activity

City Distance Mag. Time & Date
Minimum magnitude displayed is 2.5.

Earthquake Activity

City Distance Mag. Time & Date
Minimum magnitude displayed is 2.5.

Coastal Water Temperatures

Place Temperature

Stations

Nearby Weather Stations

Station Location Temp. Windchill Dew Point Humidity Wind Precip. Elev Updated Type
                   

Watches & Warnings

There are currently no watches in effect.